Time;durP1;ratioP1;P1;durP2;ratioP2;P2;SDS_P1;SDS_P2;PMS_P1;PMS_P2;Temp;Humidity;BMP_temperature;BMP_pressure;BME280_temperature;BME280_humidity;BME280_pressure;Samples;Min_cycle;Max_cycle;Signal;HPM_P1;HPM_P2
2021/05/20 00:00:17;;;;;;;10.57;9.57;;;9.50;99.90;;;;;;4990701;28;20659;-63
2021/05/20 00:02:44;;;;;;;10.93;9.83;;;9.50;99.90;;;;;;4986766;28;20197;-63
2021/05/20 00:05:11;;;;;;;10.40;9.47;;;9.40;99.90;;;;;;4970284;28;20693;-62
2021/05/20 00:07:37;;;;;;;11.80;9.70;;;9.40;99.90;;;;;;4990878;28;20624;-62
2021/05/20 00:10:06;;;;;;;10.63;9.63;;;9.40;99.90;;;;;;4990585;28;20628;-62
2021/05/20 00:12:32;;;;;;;10.00;9.07;;;9.40;99.90;;;;;;4990561;28;20629;-62
2021/05/20 00:14:58;;;;;;;10.53;9.53;;;9.40;99.90;;;;;;4968807;28;21015;-62
2021/05/20 00:17:23;;;;;;;9.83;8.93;;;9.40;99.90;;;;;;4987566;28;20625;-62
2021/05/20 00:19:49;;;;;;;13.83;10.50;;;9.40;99.90;;;;;;4987497;28;20210;-62
2021/05/20 00:22:15;;;;;;;10.60;9.07;;;9.30;99.90;;;;;;4990211;28;20795;-62
2021/05/20 00:24:40;;;;;;;9.77;8.80;;;9.30;99.90;;;;;;4982043;28;21835;-62
2021/05/20 00:27:08;;;;;;;10.13;9.20;;;9.30;99.90;;;;;;4984209;28;20194;-62
2021/05/20 00:29:34;;;;;;;9.50;8.60;;;9.30;99.90;;;;;;4985292;28;20236;-63
2021/05/20 00:32:02;;;;;;;10.17;9.17;;;9.30;99.90;;;;;;4991930;28;21183;-62
2021/05/20 00:34:27;;;;;;;9.20;8.30;;;9.30;99.90;;;;;;4981674;28;20234;-63
2021/05/20 00:36:53;;;;;;;9.80;8.90;;;9.30;99.90;;;;;;4985846;28;21000;-62
2021/05/20 00:39:18;;;;;;;9.40;8.60;;;9.30;99.90;;;;;;4985574;28;20626;-62
2021/05/20 00:41:44;;;;;;;8.90;8.10;;;9.20;99.90;;;;;;4979383;28;20191;-62
2021/05/20 00:44:09;;;;;;;11.30;8.40;;;9.30;99.90;;;;;;4988432;28;20283;-62
2021/05/20 00:46:35;;;;;;;10.17;9.03;;;9.20;99.90;;;;;;4988516;28;20190;-62
2021/05/20 00:49:09;;;;;;;9.40;8.50;;;9.30;99.90;;;;;;4977112;28;20237;-62
2021/05/20 00:51:36;;;;;;;8.80;8.00;;;9.20;99.90;;;;;;4990660;28;20189;-62
2021/05/20 00:54:02;;;;;;;8.90;8.20;;;9.20;99.90;;;;;;4964165;28;21015;-62
2021/05/20 00:56:29;;;;;;;9.00;8.20;;;9.20;99.90;;;;;;4991418;28;20620;-63
2021/05/20 00:58:55;;;;;;;9.10;8.20;;;9.20;99.90;;;;;;4990457;28;20647;-62
2021/05/20 01:01:20;;;;;;;8.23;7.27;;;9.20;99.90;;;;;;4982768;28;20985;-62
2021/05/20 01:03:46;;;;;;;8.90;8.10;;;9.20;99.90;;;;;;4983495;28;20660;-64
2021/05/20 01:06:12;;;;;;;8.30;7.60;;;9.20;99.90;;;;;;4982892;28;20782;-61
2021/05/20 01:08:39;;;;;;;8.33;7.33;;;9.20;99.90;;;;;;4985587;28;20218;-61
2021/05/20 01:11:05;;;;;;;8.40;7.23;;;9.30;99.90;;;;;;4969744;28;20243;-61
2021/05/20 01:13:30;;;;;;;7.93;7.23;;;9.30;99.90;;;;;;4990278;28;20653;-62
2021/05/20 01:15:56;;;;;;;8.57;7.60;;;9.30;99.90;;;;;;4977134;28;20198;-62
2021/05/20 01:18:24;;;;;;;8.00;7.30;;;9.20;99.90;;;;;;4980311;28;20439;-61
2021/05/20 01:20:50;;;;;;;7.90;7.20;;;9.20;99.90;;;;;;4984398;28;20190;-62
2021/05/20 01:23:18;;;;;;;7.50;6.80;;;9.20;99.90;;;;;;4975274;28;20860;-62
2021/05/20 01:25:47;;;;;;;7.23;6.63;;;9.20;99.90;;;;;;4973114;28;20217;-62
2021/05/20 01:28:20;;;;;;;7.87;7.03;;;9.20;99.90;;;;;;4992881;28;20650;-62
2021/05/20 01:30:46;;;;;;;7.83;7.23;;;9.30;99.90;;;;;;4969387;28;20625;-62
2021/05/20 01:33:15;;;;;;;7.73;7.03;;;9.20;99.90;;;;;;4986481;28;20645;-62
2021/05/20 01:35:44;;;;;;;7.53;6.93;;;9.20;99.90;;;;;;4970058;28;20720;-61
2021/05/20 01:40:55;;;;;;;8.07;7.47;;;9.20;99.90;;;;;;4985483;28;20625;-61
2021/05/20 01:43:23;;;;;;;7.57;6.97;;;9.20;99.90;;;;;;4988640;28;20641;-61
2021/05/20 01:45:55;;;;;;;7.70;6.90;;;9.30;99.90;;;;;;4987997;28;21029;-61
2021/05/20 01:48:21;;;;;;;8.70;7.27;;;9.30;99.90;;;;;;4991384;28;20656;-61
2021/05/20 01:50:46;;;;;;;7.60;6.90;;;9.30;99.90;;;;;;4984823;28;20736;-61
2021/05/20 01:53:12;;;;;;;7.80;6.70;;;9.30;99.90;;;;;;4988677;28;20218;-61
2021/05/20 01:55:38;;;;;;;7.53;6.93;;;9.40;99.90;;;;;;4982737;28;20215;-61
2021/05/20 01:58:03;;;;;;;8.03;7.27;;;9.40;99.90;;;;;;4991382;28;20360;-62
2021/05/20 02:00:29;;;;;;;7.10;6.50;;;9.40;99.90;;;;;;4987980;28;20185;-62
2021/05/20 02:02:55;;;;;;;7.70;6.93;;;9.40;99.90;;;;;;4985430;28;20366;-61
2021/05/20 02:05:20;;;;;;;7.77;6.53;;;9.50;99.90;;;;;;4979969;28;20209;-61
2021/05/20 02:07:46;;;;;;;7.00;6.50;;;9.50;99.90;;;;;;4996874;28;20787;-61
2021/05/20 02:10:12;;;;;;;7.80;7.10;;;9.50;99.90;;;;;;5000488;28;20208;-61
2021/05/20 02:12:37;;;;;;;6.87;6.27;;;9.50;99.90;;;;;;4981138;28;20501;-61
2021/05/20 02:15:04;;;;;;;7.43;6.73;;;9.50;99.90;;;;;;4985624;28;21242;-62
2021/05/20 02:17:29;;;;;;;7.20;6.60;;;9.50;99.90;;;;;;4986941;28;20220;-61
2021/05/20 02:19:55;;;;;;;6.87;6.27;;;9.50;99.90;;;;;;4981002;28;20646;-62
2021/05/20 02:22:20;;;;;;;6.83;6.23;;;9.50;99.90;;;;;;4987636;28;20183;-61
2021/05/20 02:24:46;;;;;;;7.30;6.70;;;9.50;99.90;;;;;;4987164;28;20229;-61
2021/05/20 02:27:14;;;;;;;6.67;6.13;;;9.50;99.90;;;;;;4986067;28;20218;-62
2021/05/20 02:29:42;;;;;;;7.10;6.50;;;9.50;99.90;;;;;;4981284;28;20694;-61
2021/05/20 02:32:08;;;;;;;7.07;6.47;;;9.40;99.90;;;;;;5002368;28;20738;-61
2021/05/20 02:34:33;;;;;;;7.40;6.70;;;9.40;99.90;;;;;;4971723;28;21204;-62
2021/05/20 02:36:59;;;;;;;7.47;6.87;;;9.40;99.90;;;;;;4987885;28;20198;-62
2021/05/20 02:39:24;;;;;;;9.50;7.00;;;9.40;99.90;;;;;;4984275;28;20206;-61
2021/05/20 02:41:50;;;;;;;7.33;6.77;;;9.40;99.90;;;;;;4989762;28;20196;-62
2021/05/20 02:44:18;;;;;;;7.37;6.77;;;9.40;99.90;;;;;;4982814;28;20690;-61
2021/05/20 02:46:43;;;;;;;7.17;6.57;;;9.40;99.90;;;;;;4978573;28;20201;-61
2021/05/20 02:49:09;;;;;;;7.00;6.47;;;9.40;99.90;;;;;;4988691;28;20660;-62
2021/05/20 02:51:34;;;;;;;7.43;6.80;;;9.40;99.90;;;;;;5001417;28;20276;-61
2021/05/20 02:54:00;;;;;;;7.57;6.87;;;9.40;99.90;;;;;;5003592;28;20259;-61
2021/05/20 02:56:25;;;;;;;7.20;6.50;;;9.40;99.90;;;;;;5004743;28;20194;-62
2021/05/20 03:01:22;;;;;;;7.67;7.07;;;9.40;99.90;;;;;;5019309;28;20216;-69
2021/05/20 03:03:48;;;;;;;8.00;7.30;;;9.40;99.90;;;;;;5025051;28;20707;-69
2021/05/20 03:06:13;;;;;;;7.70;7.00;;;9.50;99.90;;;;;;5024528;28;22800;-69
2021/05/20 03:08:41;;;;;;;8.73;7.83;;;9.50;99.90;;;;;;5002890;28;20213;-69
2021/05/20 03:11:07;;;;;;;8.70;7.90;;;9.50;99.90;;;;;;4997491;28;20205;-69
2021/05/20 03:13:32;;;;;;;8.43;7.53;;;9.50;99.90;;;;;;4998863;28;21213;-69
2021/05/20 03:15:58;;;;;;;7.80;7.10;;;9.50;99.90;;;;;;4980048;28;20248;-69
2021/05/20 03:18:23;;;;;;;8.73;8.00;;;9.50;99.90;;;;;;4981162;28;20212;-69
2021/05/20 03:20:49;;;;;;;8.07;7.37;;;9.50;99.90;;;;;;4999957;28;20193;-69
2021/05/20 03:23:17;;;;;;;8.60;7.90;;;9.50;99.90;;;;;;5004170;28;20217;-69
2021/05/20 03:25:42;;;;;;;8.30;7.60;;;9.60;99.90;;;;;;5003303;28;20249;-69
2021/05/20 03:28:09;;;;;;;8.30;7.60;;;9.60;99.90;;;;;;5004074;28;20723;-70
2021/05/20 03:30:34;;;;;;;8.47;7.77;;;9.60;99.90;;;;;;4980252;28;20200;-69
2021/05/20 03:33:00;;;;;;;8.70;7.80;;;9.60;99.90;;;;;;4997427;28;20988;-69
2021/05/20 03:35:25;;;;;;;7.70;7.03;;;9.60;99.90;;;;;;5014529;28;20285;-69
2021/05/20 03:37:51;;;;;;;8.50;7.70;;;9.60;99.90;;;;;;5005495;28;20672;-69
2021/05/20 03:40:17;;;;;;;8.20;7.50;;;9.60;99.90;;;;;;5001548;28;20198;-69
2021/05/20 03:42:45;;;;;;;9.50;8.20;;;9.60;99.90;;;;;;4993431;28;20200;-69
2021/05/20 03:45:11;;;;;;;10.40;8.00;;;9.70;99.90;;;;;;4975303;28;20185;-69
2021/05/20 03:47:38;;;;;;;8.70;7.90;;;9.70;99.90;;;;;;5003213;28;21047;-68
2021/05/20 03:50:04;;;;;;;9.07;8.17;;;9.70;99.90;;;;;;5002134;28;20619;-69
2021/05/20 03:52:30;;;;;;;9.30;8.50;;;9.70;99.90;;;;;;4974495;28;20725;-69
2021/05/20 03:54:55;;;;;;;9.50;8.67;;;9.70;99.90;;;;;;5002360;28;20648;-68
2021/05/20 03:57:21;;;;;;;9.27;8.47;;;9.70;99.90;;;;;;5001955;28;20204;-69
2021/05/20 03:59:47;;;;;;;9.27;8.37;;;9.70;99.90;;;;;;5004008;28;20243;-68
2021/05/20 04:02:14;;;;;;;10.60;9.70;;;9.70;99.90;;;;;;4984158;28;20221;-68
2021/05/20 04:04:40;;;;;;;9.07;8.17;;;9.80;99.90;;;;;;5004887;28;20234;-68
2021/05/20 04:07:06;;;;;;;10.80;9.80;;;9.80;99.90;;;;;;5006144;28;20714;-68
2021/05/20 04:09:31;;;;;;;10.57;9.57;;;9.80;99.90;;;;;;5000420;28;20216;-68
2021/05/20 04:11:57;;;;;;;10.07;9.17;;;9.90;99.90;;;;;;5005893;28;20236;-68
2021/05/20 04:14:23;;;;;;;9.60;8.80;;;9.90;99.90;;;;;;5005235;28;20228;-69
2021/05/20 04:16:49;;;;;;;11.40;10.40;;;9.90;99.90;;;;;;5001259;28;20939;-68
2021/05/20 04:19:15;;;;;;;11.13;10.03;;;10.00;99.90;;;;;;4993214;28;20665;-68
2021/05/20 04:21:41;;;;;;;11.53;10.47;;;10.00;99.90;;;;;;5012911;28;20174;-69
2021/05/20 04:24:07;;;;;;;11.70;10.50;;;10.10;99.90;;;;;;5010824;28;20636;-69
2021/05/20 04:26:33;;;;;;;12.40;11.20;;;10.10;99.90;;;;;;5014256;28;20634;-69
2021/05/20 04:28:58;;;;;;;12.37;11.10;;;10.10;99.90;;;;;;5006383;28;20239;-69
2021/05/20 04:31:24;;;;;;;11.93;10.70;;;10.10;99.90;;;;;;5005293;28;20198;-69
2021/05/20 04:33:49;;;;;;;13.03;11.73;;;10.30;99.90;;;;;;4995746;28;20224;-69
2021/05/20 04:36:15;;;;;;;11.60;10.50;;;10.40;99.90;;;;;;5011471;28;20560;-69
2021/05/20 04:38:41;;;;;;;11.67;10.60;;;10.30;99.90;;;;;;5006658;28;20257;-69
2021/05/20 04:41:07;;;;;;;11.40;10.40;;;10.30;99.90;;;;;;5003444;28;20267;-69
2021/05/20 04:43:33;;;;;;;12.43;11.13;;;10.40;99.90;;;;;;4989400;28;20738;-70
2021/05/20 04:45:58;;;;;;;11.33;10.33;;;10.40;99.90;;;;;;5010041;28;21421;-69
2021/05/20 04:48:24;;;;;;;11.80;10.60;;;10.40;99.90;;;;;;5004565;28;20225;-69
2021/05/20 04:50:50;;;;;;;11.93;10.90;;;10.40;99.90;;;;;;5002044;28;20193;-68
2021/05/20 04:53:15;;;;;;;11.90;10.70;;;10.50;99.90;;;;;;5008680;28;20278;-69
2021/05/20 04:55:41;;;;;;;11.63;10.40;;;10.60;99.90;;;;;;4983073;28;20181;-69
2021/05/20 04:58:09;;;;;;;11.20;10.10;;;10.60;99.90;;;;;;5007157;28;20197;-69
2021/05/20 05:00:34;;;;;;;12.87;11.43;;;10.60;99.90;;;;;;5002902;28;20205;-70
2021/05/20 05:03:00;;;;;;;11.93;10.73;;;10.70;99.90;;;;;;5007944;28;20673;-69
2021/05/20 05:05:25;;;;;;;12.80;11.50;;;10.80;99.90;;;;;;4979677;28;20228;-69
2021/05/20 05:07:51;;;;;;;12.83;11.20;;;10.70;99.90;;;;;;5005031;28;20567;-68
2021/05/20 05:10:16;;;;;;;11.83;10.70;;;10.60;99.90;;;;;;4995876;28;20204;-69
2021/05/20 05:12:42;;;;;;;11.27;10.13;;;10.70;99.90;;;;;;5002380;28;20561;-69
2021/05/20 05:15:08;;;;;;;12.13;10.93;;;10.80;99.90;;;;;;4997489;28;20224;-69
2021/05/20 05:17:34;;;;;;;11.80;10.70;;;10.70;99.90;;;;;;5005394;28;20185;-69
2021/05/20 05:19:59;;;;;;;11.43;10.33;;;10.70;99.90;;;;;;5005461;28;20619;-69
2021/05/20 05:22:25;;;;;;;11.30;10.20;;;10.80;99.90;;;;;;5003577;28;20374;-70
2021/05/20 05:24:53;;;;;;;11.80;10.70;;;10.80;99.90;;;;;;4997488;28;20692;-68
2021/05/20 05:27:21;;;;;;;14.07;12.77;;;10.80;99.90;;;;;;4979435;28;20191;-69
2021/05/20 05:29:46;;;;;;;14.53;12.33;;;10.90;99.90;;;;;;4994567;28;20701;-69
2021/05/20 05:32:12;;;;;;;13.37;12.00;;;10.90;99.90;;;;;;4990192;28;20813;-69
2021/05/20 05:34:38;;;;;;;13.47;11.47;;;10.90;99.90;;;;;;5011766;28;20221;-67
2021/05/20 05:37:03;;;;;;;12.40;10.93;;;10.90;99.90;;;;;;5016489;28;20440;-69
2021/05/20 05:39:29;;;;;;;12.63;11.37;;;11.00;99.90;;;;;;5011837;28;20201;-68
2021/05/20 05:41:55;;;;;;;12.67;11.47;;;11.00;99.90;;;;;;5014932;28;20273;-68
2021/05/20 05:44:21;;;;;;;13.07;11.60;;;11.00;99.90;;;;;;4995731;28;20600;-68
2021/05/20 05:46:46;;;;;;;13.30;11.80;;;11.00;99.90;;;;;;4992617;28;20192;-68
2021/05/20 05:49:15;;;;;;;13.20;11.90;;;11.10;99.90;;;;;;5006579;28;20215;-68
2021/05/20 05:51:45;;;;;;;12.73;11.43;;;11.20;99.90;;;;;;5010432;28;20197;-68
2021/05/20 05:54:10;;;;;;;13.67;12.30;;;11.30;99.90;;;;;;5011520;28;20766;-68
2021/05/20 05:56:36;;;;;;;11.90;10.63;;;11.40;99.90;;;;;;4995295;28;21980;-69
2021/05/20 05:59:04;;;;;;;13.80;12.50;;;11.50;99.90;;;;;;4999888;28;20297;-68
2021/05/20 06:01:30;;;;;;;14.00;12.20;;;11.50;99.90;;;;;;5009663;28;20211;-68
2021/05/20 06:03:58;;;;;;;15.60;11.53;;;11.50;99.90;;;;;;4964463;28;21063;-69
2021/05/20 06:06:23;;;;;;;13.63;12.30;;;11.60;99.90;;;;;;4980331;28;21082;-68
2021/05/20 06:08:49;;;;;;;12.60;11.27;;;11.70;99.90;;;;;;4994598;28;20735;-69
2021/05/20 06:11:15;;;;;;;14.47;12.47;;;11.60;99.90;;;;;;4987800;28;20182;-69
2021/05/20 06:13:41;;;;;;;13.37;12.07;;;11.50;99.90;;;;;;4996136;28;20225;-69
2021/05/20 06:16:06;;;;;;;13.67;11.60;;;11.50;99.90;;;;;;4999464;28;20627;-68
2021/05/20 06:18:32;;;;;;;13.03;11.80;;;11.50;99.90;;;;;;4977478;28;20300;-69
2021/05/20 06:20:57;;;;;;;14.83;12.43;;;11.50;99.90;;;;;;4988962;28;20229;-69
2021/05/20 06:23:23;;;;;;;11.83;10.73;;;11.50;99.90;;;;;;4972348;28;20334;-69
2021/05/20 06:25:49;;;;;;;12.37;11.27;;;11.70;99.90;;;;;;4986400;28;20570;-69
2021/05/20 06:28:14;;;;;;;12.00;10.80;;;11.70;99.90;;;;;;4970911;28;20216;-68
2021/05/20 06:30:42;;;;;;;12.43;11.13;;;11.80;99.90;;;;;;4989093;28;20190;-68
2021/05/20 06:33:08;;;;;;;11.03;9.93;;;11.80;99.90;;;;;;4971761;28;20610;-69
2021/05/20 06:35:33;;;;;;;11.70;10.47;;;11.90;99.90;;;;;;5004901;28;20652;-67
2021/05/20 06:37:59;;;;;;;10.20;9.30;;;11.90;99.90;;;;;;4982220;28;20229;-67
2021/05/20 06:40:25;;;;;;;10.70;9.67;;;12.00;99.90;;;;;;4956779;28;20589;-67
2021/05/20 06:42:50;;;;;;;11.37;9.80;;;12.10;99.90;;;;;;4994314;28;20209;-66
2021/05/20 06:45:16;;;;;;;10.50;9.40;;;12.10;99.90;;;;;;4998928;28;20636;-68
2021/05/20 06:47:44;;;;;;;9.77;8.87;;;12.10;99.90;;;;;;4976250;28;20196;-67
2021/05/20 06:50:10;;;;;;;9.37;8.43;;;12.10;99.90;;;;;;4984154;28;20197;-67
2021/05/20 06:52:35;;;;;;;11.07;9.37;;;12.20;99.90;;;;;;4978673;28;20631;-67
2021/05/20 06:55:01;;;;;;;10.23;9.20;;;12.20;99.90;;;;;;4991944;28;20658;-67
2021/05/20 06:59:56;;;;;;;12.00;9.30;;;12.10;99.90;;;;;;5002929;28;20681;-67
2021/05/20 07:00:16;;;;;;;10.67;9.60;;;12.10;99.90;;;;;;5002626;28;20204;-67
2021/05/20 07:02:42;;;;;;;9.03;8.23;;;12.10;99.90;;;;;;4985072;28;20662;-67
2021/05/20 07:05:10;;;;;;;8.63;7.87;;;12.20;99.90;;;;;;4975653;28;20614;-67
2021/05/20 07:07:38;;;;;;;8.37;7.57;;;12.20;99.90;;;;;;5012396;28;20189;-67
2021/05/20 07:10:05;;;;;;;7.90;7.20;;;12.40;99.90;;;;;;5003579;28;20655;-67
2021/05/20 07:12:30;;;;;;;7.63;6.93;;;12.40;99.90;;;;;;5008117;28;20641;-67
2021/05/20 07:14:58;;;;;;;6.83;6.33;;;12.50;99.90;;;;;;5008437;28;20656;-66
2021/05/20 07:17:23;;;;;;;7.77;7.17;;;12.50;99.90;;;;;;5010144;28;20220;-66
2021/05/20 07:19:49;;;;;;;8.17;7.40;;;12.40;99.90;;;;;;5010577;28;20644;-66
2021/05/20 07:22:14;;;;;;;7.23;6.60;;;12.50;99.90;;;;;;5010026;28;20181;-66
2021/05/20 07:24:42;;;;;;;7.50;6.80;;;12.50;99.90;;;;;;5012295;28;20259;-66
2021/05/20 07:27:07;;;;;;;6.97;6.43;;;12.60;99.90;;;;;;4991652;28;20657;-67
2021/05/20 07:29:33;;;;;;;7.93;7.10;;;12.60;99.90;;;;;;5004456;28;20652;-66
2021/05/20 07:31:58;;;;;;;8.27;7.67;;;12.60;99.90;;;;;;5006196;28;20312;-67
2021/05/20 07:34:24;;;;;;;7.80;7.13;;;12.70;99.90;;;;;;5006946;28;20250;-65
2021/05/20 07:36:49;;;;;;;8.53;7.50;;;12.70;99.90;;;;;;4999181;28;20255;-66
2021/05/20 07:39:15;;;;;;;7.77;7.07;;;12.70;99.90;;;;;;4965777;28;20222;-66
2021/05/20 07:41:43;;;;;;;7.63;7.00;;;12.60;99.90;;;;;;4999643;28;20185;-66
2021/05/20 07:44:09;;;;;;;6.67;6.07;;;12.60;99.90;;;;;;5001260;28;20317;-66
2021/05/20 07:46:34;;;;;;;6.57;6.00;;;12.60;99.90;;;;;;4987954;28;20712;-66
2021/05/20 07:49:00;;;;;;;6.40;5.83;;;12.70;99.90;;;;;;4988509;28;20216;-66
2021/05/20 07:51:25;;;;;;;6.27;5.70;;;12.80;99.90;;;;;;4971599;28;20186;-68
2021/05/20 07:53:51;;;;;;;6.20;5.60;;;12.90;99.90;;;;;;4998435;28;20224;-68
2021/05/20 07:56:16;;;;;;;7.07;6.47;;;13.00;99.90;;;;;;4993725;28;20190;-68
2021/05/20 07:58:42;;;;;;;5.47;4.97;;;13.10;99.90;;;;;;4995780;28;20302;-66
2021/05/20 08:01:09;;;;;;;6.03;5.30;;;13.20;99.90;;;;;;4974626;28;20619;-66
2021/05/20 08:03:45;;;;;;;5.77;5.27;;;13.20;99.90;;;;;;4977694;28;20870;-66
2021/05/20 08:11:24;;;;;;;5.40;5.00;;;13.50;99.90;;;;;;4998107;28;20624;-67
2021/05/20 08:13:50;;;;;;;9.23;5.90;;;13.50;99.90;;;;;;4967150;28;21196;-66
2021/05/20 08:16:19;;;;;;;6.00;5.30;;;13.50;99.90;;;;;;4995664;28;20181;-66
2021/05/20 08:18:46;;;;;;;5.43;5.00;;;13.60;99.90;;;;;;4998861;28;20220;-67
2021/05/20 08:21:12;;;;;;;4.80;4.50;;;13.70;99.90;;;;;;4996621;28;20722;-69
2021/05/20 08:23:39;;;;;;;6.33;5.83;;;13.70;99.90;;;;;;4979609;28;20678;-67
2021/05/20 08:26:07;;;;;;;6.13;5.60;;;13.80;99.90;;;;;;4991282;28;20616;-67
2021/05/20 08:28:34;;;;;;;5.50;5.10;;;13.80;99.90;;;;;;4973317;28;20846;-67
2021/05/20 08:30:59;;;;;;;5.30;4.50;;;14.00;99.90;;;;;;4995540;28;20608;-67
2021/05/20 08:33:25;;;;;;;6.40;5.03;;;14.10;99.90;;;;;;4990884;28;20648;-66
2021/05/20 08:35:53;;;;;;;4.33;3.97;;;14.10;99.90;;;;;;4973468;28;20762;-67
2021/05/20 08:38:19;;;;;;;4.73;4.33;;;14.10;99.90;;;;;;5002119;28;20208;-66
2021/05/20 08:40:44;;;;;;;4.40;4.07;;;14.10;99.90;;;;;;4985452;28;20607;-67
2021/05/20 08:43:12;;;;;;;5.13;4.23;;;14.20;99.90;;;;;;4978283;28;20227;-67
2021/05/20 08:45:39;;;;;;;4.90;4.50;;;14.20;99.90;;;;;;4990728;28;20217;-67
2021/05/20 08:48:06;;;;;;;4.17;3.83;;;14.10;99.90;;;;;;5004217;28;20703;-67
2021/05/20 08:50:33;;;;;;;4.63;4.30;;;14.20;99.90;;;;;;4973885;28;20714;-67
2021/05/20 08:52:59;;;;;;;5.23;4.73;;;14.30;99.90;;;;;;4997048;28;20627;-67
2021/05/20 08:55:31;;;;;;;6.10;4.23;;;14.40;99.90;;;;;;4975501;28;20660;-67
2021/05/20 08:58:01;;;;;;;4.70;4.17;;;14.60;99.90;;;;;;4985244;28;21317;-68
2021/05/20 09:00:29;;;;;;;4.00;3.70;;;14.60;99.90;;;;;;4982405;28;20632;-69
2021/05/20 09:03:23;;;;;;;4.90;4.60;;;14.60;99.90;;;;;;4998970;28;20969;-68
2021/05/20 09:05:50;;;;;;;4.50;4.20;;;14.70;99.90;;;;;;4969093;28;20646;-68
2021/05/20 09:08:18;;;;;;;5.10;4.70;;;14.70;99.90;;;;;;5002674;28;20682;-68
2021/05/20 09:10:45;;;;;;;5.87;4.00;;;14.80;99.90;;;;;;5002622;28;20611;-68
2021/05/20 09:13:18;;;;;;;4.37;3.97;;;14.70;99.90;;;;;;4988049;28;20705;-68
2021/05/20 09:15:45;;;;;;;4.47;4.17;;;14.60;99.90;;;;;;5007132;28;20759;-68
2021/05/20 09:18:27;;;;;;;5.30;4.30;;;14.60;99.90;;;;;;5005629;28;20648;-68
2021/05/20 09:20:58;;;;;;;5.33;4.57;;;14.60;99.90;;;;;;4999448;28;21088;-68
2021/05/20 09:23:26;;;;;;;5.10;4.60;;;14.70;99.90;;;;;;5006505;28;20636;-68
2021/05/20 09:26:02;;;;;;;4.67;4.27;;;14.80;99.90;;;;;;4991283;28;20619;-68
2021/05/20 09:28:35;;;;;;;4.00;3.70;;;14.80;99.90;;;;;;4997341;28;20853;-68
2021/05/20 09:31:01;;;;;;;4.70;4.30;;;14.90;99.90;;;;;;4998723;28;20612;-68
2021/05/20 09:33:27;;;;;;;4.37;3.97;;;14.90;99.90;;;;;;4988946;28;20683;-68
2021/05/20 09:35:53;;;;;;;3.97;3.77;;;15.00;99.90;;;;;;5001170;28;20625;-68
2021/05/20 09:38:20;;;;;;;4.23;3.93;;;15.10;99.90;;;;;;4999534;28;23290;-68
2021/05/20 09:40:59;;;;;;;3.87;3.57;;;15.20;99.90;;;;;;4998998;28;20299;-68
2021/05/20 09:43:33;;;;;;;4.70;4.30;;;15.30;99.90;;;;;;4998743;28;21049;-68
2021/05/20 09:46:03;;;;;;;4.87;3.57;;;15.20;99.90;;;;;;4967871;28;20616;-68
2021/05/20 09:48:37;;;;;;;4.07;3.77;;;15.00;99.90;;;;;;5004405;28;21281;-68
2021/05/20 09:51:07;;;;;;;4.20;3.90;;;15.00;99.90;;;;;;4982081;28;20643;-68
2021/05/20 09:53:44;;;;;;;4.23;3.93;;;14.90;99.90;;;;;;4997601;28;21242;-68
2021/05/20 09:56:10;;;;;;;4.20;3.90;;;14.80;99.90;;;;;;4973230;28;20650;-69
2021/05/20 09:58:36;;;;;;;5.43;4.93;;;14.50;99.90;;;;;;4998871;28;22953;-69
2021/05/20 10:01:04;;;;;;;4.90;4.50;;;14.40;99.90;;;;;;5000756;28;21472;-70
2021/05/20 10:03:35;;;;;;;5.30;4.80;;;14.30;99.90;;;;;;4966903;28;20709;-71
2021/05/20 10:06:01;;;;;;;5.80;5.40;;;14.30;99.90;;;;;;4998487;28;20608;-69
2021/05/20 10:08:30;;;;;;;5.73;5.33;;;14.30;99.90;;;;;;5002291;28;20720;-69
2021/05/20 10:11:01;;;;;;;6.17;5.67;;;14.30;99.90;;;;;;5000376;28;20189;-69
2021/05/20 10:13:28;;;;;;;5.97;5.47;;;14.40;99.90;;;;;;4994066;28;20948;-70
2021/05/20 10:15:56;;;;;;;7.10;6.40;;;14.50;99.90;;;;;;4967734;28;20622;-70
2021/05/20 10:18:42;;;;;;;6.77;6.27;;;14.50;99.90;;;;;;5006235;28;21248;-69
2021/05/20 10:21:08;;;;;;;6.83;6.27;;;14.60;99.90;;;;;;5000786;28;20834;-69
2021/05/20 10:23:34;;;;;;;6.60;6.10;;;14.70;99.90;;;;;;5002054;28;21056;-70
2021/05/20 10:26:00;;;;;;;5.43;4.87;;;14.80;99.90;;;;;;4990797;28;20672;-69
2021/05/20 10:28:26;;;;;;;5.70;5.30;;;14.90;99.90;;;;;;4978880;28;21403;-69
2021/05/20 10:30:57;;;;;;;4.93;4.43;;;15.10;99.90;;;;;;4989714;28;20264;-69
2021/05/20 10:33:28;;;;;;;4.80;4.40;;;15.20;99.90;;;;;;5002220;28;20221;-69
2021/05/20 10:35:57;;;;;;;4.77;4.40;;;15.30;99.90;;;;;;4973113;28;20622;-69
2021/05/20 10:38:25;;;;;;;6.93;4.07;;;15.40;99.90;;;;;;4969584;28;21268;-69
2021/05/20 10:41:13;;;;;;;4.43;4.03;;;15.40;99.90;;;;;;4976309;28;20973;-69
2021/05/20 10:43:43;;;;;;;4.50;4.10;;;15.40;99.90;;;;;;5002414;28;20636;-67
2021/05/20 10:46:13;;;;;;;5.20;4.30;;;15.40;99.90;;;;;;5000751;28;20619;-68
2021/05/20 10:48:56;;;;;;;4.60;4.30;;;15.40;99.90;;;;;;5003638;28;20655;-69
2021/05/20 10:51:23;;;;;;;4.33;4.03;;;15.50;99.90;;;;;;4981355;28;20616;-67
2021/05/20 10:53:56;;;;;;;4.80;4.50;;;15.40;99.90;;;;;;4987015;28;20671;-67
2021/05/20 10:56:23;;;;;;;5.17;4.77;;;15.40;99.90;;;;;;4991787;28;20629;-68
2021/05/20 10:58:53;;;;;;;4.80;4.50;;;15.40;99.90;;;;;;4996332;28;21004;-68
2021/05/20 11:01:23;;;;;;;4.50;4.20;;;15.50;99.90;;;;;;4991976;28;20996;-69
2021/05/20 11:03:50;;;;;;;5.03;4.30;;;15.40;99.90;;;;;;4998914;28;20640;-70
2021/05/20 11:06:37;;;;;;;4.53;4.23;;;15.50;99.90;;;;;;4998808;28;20709;-68
2021/05/20 11:09:07;;;;;;;5.40;4.90;;;15.50;99.90;;;;;;4978333;28;21092;-68
2021/05/20 11:11:34;;;;;;;5.40;5.00;;;15.60;99.90;;;;;;5006030;28;20725;-68
2021/05/20 11:14:26;;;;;;;4.60;4.30;;;15.70;99.90;;;;;;4984664;28;20667;-68
2021/05/20 11:16:54;;;;;;;5.60;5.20;;;15.60;99.90;;;;;;5000821;28;20627;-68
2021/05/20 11:22:04;;;;;;;5.83;5.17;;;15.50;99.90;;;;;;5005783;28;20646;-68
2021/05/20 11:24:36;;;;;;;6.70;6.10;;;15.40;99.90;;;;;;4993470;28;20771;-68
2021/05/20 11:27:15;;;;;;;6.97;6.47;;;15.30;99.90;;;;;;4992177;28;21177;-68
2021/05/20 11:29:43;;;;;;;6.03;5.63;;;15.30;99.90;;;;;;5000534;28;20667;-68
2021/05/20 11:32:24;;;;;;;6.40;5.90;;;15.30;99.90;;;;;;5003949;28;20962;-68
2021/05/20 11:37:42;;;;;;;5.30;4.90;;;15.50;99.90;;;;;;5006925;28;20619;-68
2021/05/20 11:40:31;;;;;;;5.10;4.60;;;15.70;99.90;;;;;;4999449;28;20600;-68
2021/05/20 11:42:59;;;;;;;5.00;4.60;;;15.80;99.90;;;;;;5001880;28;20957;-68
2021/05/20 11:45:31;;;;;;;6.93;6.43;;;16.00;99.90;;;;;;4993345;28;20611;-68
2021/05/20 11:47:58;;;;;;;7.00;6.40;;;16.30;99.90;;;;;;4983401;28;20677;-68
2021/05/20 11:50:26;;;;;;;7.87;7.27;;;16.60;99.90;;;;;;4986942;28;21198;-68
2021/05/20 11:52:53;;;;;;;6.20;5.70;;;16.70;99.90;;;;;;4999982;28;20608;-69
2021/05/20 11:55:20;;;;;;;5.90;5.47;;;16.90;99.90;;;;;;4973030;28;20663;-68
2021/05/20 11:57:46;;;;;;;5.50;5.10;;;17.00;99.90;;;;;;4998323;28;20607;-68
2021/05/20 12:00:15;;;;;;;5.27;4.83;;;17.00;99.90;;;;;;4982748;28;20635;-68
2021/05/20 12:02:42;;;;;;;6.00;5.50;;;17.20;99.90;;;;;;4994124;28;20668;-68
2021/05/20 12:05:14;;;;;;;5.07;4.63;;;17.20;99.90;;;;;;4999313;28;20608;-68
2021/05/20 12:07:41;;;;;;;4.43;4.03;;;17.10;99.90;;;;;;4998709;28;21214;-68
2021/05/20 12:10:16;;;;;;;5.23;4.83;;;17.10;99.90;;;;;;4997060;28;20983;-68
2021/05/20 12:12:49;;;;;;;5.00;4.60;;;17.10;99.90;;;;;;4984191;28;20615;-67
2021/05/20 12:15:17;;;;;;;6.73;5.43;;;17.20;99.90;;;;;;4976588;28;20647;-70
2021/05/20 12:17:44;;;;;;;5.90;5.30;;;17.20;99.90;;;;;;4998548;28;20614;-69
2021/05/20 12:20:10;;;;;;;7.47;4.60;;;17.30;99.90;;;;;;4996664;28;20699;-67
2021/05/20 12:22:38;;;;;;;5.13;4.83;;;17.40;99.90;;;;;;4982780;28;20665;-67
2021/05/20 12:25:08;;;;;;;4.53;4.23;;;17.50;99.90;;;;;;5007028;28;20666;-70
2021/05/20 12:27:40;;;;;;;5.00;4.60;;;17.40;99.90;;;;;;5005640;28;20620;-70
2021/05/20 12:30:22;;;;;;;4.83;3.67;;;17.20;99.90;;;;;;5003698;28;20604;-70
2021/05/20 12:32:48;;;;;;;4.03;3.63;;;16.90;99.90;;;;;;4977297;28;20619;-69
2021/05/20 12:35:29;;;;;;;3.90;3.60;;;16.60;99.90;;;;;;4968280;28;20645;-70
2021/05/20 12:38:20;;;;;;;6.30;3.60;;;16.00;99.90;;;;;;4994967;28;21182;-69
2021/05/20 12:40:58;;;;;;;3.80;3.10;;;15.40;99.90;;;;;;4973084;28;21211;-68
2021/05/20 12:43:28;;;;;;;3.30;2.77;;;15.00;99.90;;;;;;4995167;28;20634;-68
2021/05/20 12:46:06;;;;;;;3.30;2.40;;;14.60;99.90;;;;;;5006367;28;20609;-68
2021/05/20 12:48:38;;;;;;;2.63;2.43;;;14.30;99.90;;;;;;5010152;28;20659;-68
2021/05/20 12:51:16;;;;;;;2.60;2.23;;;14.00;99.90;;;;;;4966093;28;20670;-67
2021/05/20 12:53:43;;;;;;;2.23;2.13;;;13.90;99.90;;;;;;4983382;28;20636;-69
2021/05/20 12:56:27;;;;;;;2.60;2.50;;;13.80;99.90;;;;;;4988370;28;20669;-69
2021/05/20 12:59:08;;;;;;;2.83;2.30;;;13.70;99.90;;;;;;5002168;28;20654;-69
2021/05/20 13:01:53;;;;;;;2.67;2.17;;;13.60;99.90;;;;;;4992326;28;20612;-69
2021/05/20 13:04:25;;;;;;;2.37;2.17;;;13.60;99.90;;;;;;5015587;28;21254;-69